Time;durP1;ratioP1;P1;durP2;ratioP2;P2;SDS_P1;SDS_P2;PMS_P1;PMS_P2;Temp;Humidity;BMP_temperature;BMP_pressure;BME280_temperature;BME280_humidity;BME280_pressure;Samples;Min_cycle;Max_cycle;Signal;HPM_P1;HPM_P2
2022/04/01 00:01:06;;;;;;;3.50;1.90;;;7.80;90.00;;;;;;5116671;28;20226;-63
2022/04/01 00:03:34;;;;;;;3.17;2.17;;;7.80;90.00;;;;;;5116581;28;20188;-67
2022/04/01 00:06:01;;;;;;;3.47;1.80;;;7.80;89.90;;;;;;5115895;28;20533;-64
2022/04/01 00:08:30;;;;;;;6.65;2.42;;;7.90;89.90;;;;;;5116400;28;20519;-63
2022/04/01 00:10:57;;;;;;;2.90;1.80;;;7.90;89.90;;;;;;5096884;28;20200;-63
2022/04/01 00:13:25;;;;;;;2.80;1.80;;;7.90;89.40;;;;;;5096336;28;20253;-63
2022/04/01 00:15:52;;;;;;;2.80;1.70;;;8.00;88.90;;;;;;5113153;28;20200;-62
2022/04/01 00:18:22;;;;;;;1.83;0.90;;;8.00;88.00;;;;;;5115617;28;20635;-64
2022/04/01 00:20:49;;;;;;;1.80;0.90;;;8.00;86.60;;;;;;5092104;28;20224;-63
2022/04/01 00:23:16;;;;;;;1.70;0.98;;;8.00;84.90;;;;;;5095809;28;20648;-64
2022/04/01 00:25:45;;;;;;;1.60;0.70;;;8.10;84.20;;;;;;5112691;28;20191;-64
2022/04/01 00:28:13;;;;;;;1.60;0.70;;;8.10;83.90;;;;;;5116087;28;20710;-63
2022/04/01 00:30:40;;;;;;;1.60;0.70;;;8.10;83.50;;;;;;5115740;28;20248;-63
2022/04/01 00:33:08;;;;;;;1.90;0.70;;;8.10;83.00;;;;;;5116252;28;20710;-63
2022/04/01 00:35:36;;;;;;;1.70;0.75;;;8.10;82.40;;;;;;5116306;28;20184;-63
2022/04/01 00:38:03;;;;;;;1.77;0.80;;;8.10;82.20;;;;;;5104415;28;20277;-63
2022/04/01 00:40:30;;;;;;;1.83;1.02;;;8.10;81.90;;;;;;5095407;28;20326;-63
2022/04/01 00:42:59;;;;;;;1.80;0.80;;;8.10;81.90;;;;;;5105190;28;20188;-63
2022/04/01 00:45:26;;;;;;;1.65;0.80;;;8.00;81.90;;;;;;5115745;28;20288;-63
2022/04/01 00:47:54;;;;;;;1.50;0.60;;;8.10;82.20;;;;;;5115264;28;20227;-63
2022/04/01 00:50:22;;;;;;;1.98;0.70;;;8.10;82.50;;;;;;5115497;28;20191;-63
2022/04/01 00:52:50;;;;;;;2.08;0.80;;;8.10;82.80;;;;;;5113794;28;20559;-63
2022/04/01 00:55:17;;;;;;;1.83;0.80;;;8.10;82.40;;;;;;5115566;28;20188;-63
2022/04/01 00:57:44;;;;;;;1.60;0.80;;;8.10;81.50;;;;;;5099420;28;20191;-63
2022/04/01 01:00:15;;;;;;;1.67;0.70;;;8.10;80.70;;;;;;5095099;28;20643;-63
2022/04/01 01:02:42;;;;;;;1.60;0.70;;;8.10;80.50;;;;;;5107679;28;20177;-63
2022/04/01 01:05:10;;;;;;;1.80;0.90;;;8.00;79.90;;;;;;5115017;28;20188;-64
2022/04/01 01:07:40;;;;;;;1.80;0.80;;;8.00;80.10;;;;;;5101705;28;20189;-64
2022/04/01 01:10:08;;;;;;;1.58;0.73;;;8.00;80.50;;;;;;5106171;28;20551;-63
2022/04/01 01:12:36;;;;;;;1.70;0.70;;;8.00;80.10;;;;;;5115355;28;20188;-63
2022/04/01 01:15:11;;;;;;;1.70;0.75;;;8.00;80.20;;;;;;5113687;28;20188;-63
2022/04/01 01:17:40;;;;;;;1.80;1.00;;;8.00;80.00;;;;;;5115172;28;20284;-62
2022/04/01 01:20:12;;;;;;;1.65;0.80;;;8.00;79.80;;;;;;5104548;28;20189;-63
2022/04/01 01:22:41;;;;;;;1.85;0.90;;;8.00;80.10;;;;;;5094751;28;20225;-63
2022/04/01 01:25:15;;;;;;;1.65;0.70;;;8.00;79.60;;;;;;5104040;28;20218;-64
2022/04/01 01:27:43;;;;;;;1.80;0.85;;;7.90;79.60;;;;;;5115159;28;20701;-63
2022/04/01 01:30:11;;;;;;;1.90;0.88;;;7.90;79.70;;;;;;5105260;28;20242;-63
2022/04/01 01:32:39;;;;;;;2.42;0.90;;;7.90;79.50;;;;;;5094521;28;20271;-63
2022/04/01 01:35:09;;;;;;;1.98;1.20;;;7.90;79.90;;;;;;5102252;28;20199;-63
2022/04/01 01:37:36;;;;;;;1.98;0.90;;;7.90;80.00;;;;;;5115101;28;20588;-62
2022/04/01 01:40:04;;;;;;;2.28;0.90;;;7.90;80.00;;;;;;5113169;28;20596;-63
2022/04/01 01:42:36;;;;;;;2.55;1.42;;;7.80;79.80;;;;;;5114628;28;20212;-63
2022/04/01 01:45:05;;;;;;;3.78;1.10;;;7.80;79.80;;;;;;5105802;28;20185;-63
2022/04/01 01:47:32;;;;;;;2.25;1.25;;;7.80;80.30;;;;;;5094202;28;20960;-63
2022/04/01 01:55:30;;;;;;;2.63;1.50;;;7.80;80.50;;;;;;5103192;28;20204;-62
2022/04/01 01:58:00;;;;;;;2.30;1.20;;;7.80;81.00;;;;;;5094153;28;20655;-62
2022/04/01 02:00:27;;;;;;;2.40;1.55;;;7.80;80.90;;;;;;5104052;28;20192;-63
2022/04/01 02:02:54;;;;;;;2.20;1.25;;;7.80;81.30;;;;;;5114305;28;20216;-63
2022/04/01 02:05:21;;;;;;;2.30;1.13;;;7.80;81.00;;;;;;5100428;28;20185;-62
2022/04/01 02:07:49;;;;;;;2.25;1.27;;;7.80;80.40;;;;;;5093933;28;20184;-63
2022/04/01 02:10:17;;;;;;;1.70;0.90;;;7.80;79.80;;;;;;5105354;28;20188;-63
2022/04/01 02:12:44;;;;;;;2.50;1.20;;;7.70;79.60;;;;;;5114092;28;20188;-63
2022/04/01 02:15:13;;;;;;;2.28;1.25;;;7.70;79.20;;;;;;5103426;28;20213;-63
2022/04/01 02:17:41;;;;;;;1.90;1.13;;;7.70;79.20;;;;;;5093474;28;20232;-63
2022/04/01 02:20:10;;;;;;;2.53;1.30;;;7.70;79.00;;;;;;5102244;28;20223;-63
2022/04/01 02:22:38;;;;;;;2.10;1.23;;;7.60;79.00;;;;;;5114033;28;20219;-63
2022/04/01 02:25:07;;;;;;;1.80;1.08;;;7.60;78.40;;;;;;5104794;28;20199;-63
2022/04/01 02:27:34;;;;;;;1.95;1.30;;;7.50;78.60;;;;;;5093504;28;20196;-63
2022/04/01 02:30:10;;;;;;;2.00;1.42;;;7.50;79.00;;;;;;5100822;28;20565;-63
2022/04/01 02:32:39;;;;;;;2.20;1.20;;;7.50;79.50;;;;;;5113972;28;20188;-62
2022/04/01 02:35:07;;;;;;;2.20;1.40;;;7.50;79.40;;;;;;5105899;28;20188;-63
2022/04/01 02:37:34;;;;;;;2.10;1.30;;;7.50;79.70;;;;;;5093136;28;20185;-63
2022/04/01 02:40:02;;;;;;;2.20;1.48;;;7.50;80.20;;;;;;5109572;28;20188;-63
2022/04/01 02:42:29;;;;;;;2.80;1.65;;;7.50;79.60;;;;;;5113659;28;20228;-62
2022/04/01 02:44:56;;;;;;;2.42;1.63;;;7.50;79.80;;;;;;5097937;28;20193;-62
2022/04/01 02:47:24;;;;;;;2.95;1.88;;;7.50;79.50;;;;;;5093186;28;20621;-63
2022/04/01 02:49:53;;;;;;;4.15;1.70;;;7.50;79.20;;;;;;5106614;28;20283;-62
2022/04/01 02:52:21;;;;;;;2.50;1.70;;;7.40;78.70;;;;;;5113404;28;20195;-63
2022/04/01 02:54:48;;;;;;;2.30;1.38;;;7.40;79.20;;;;;;5100084;28;20181;-63
2022/04/01 02:57:15;;;;;;;5.25;2.25;;;7.40;79.40;;;;;;5092804;28;20246;-63
2022/04/01 02:59:43;;;;;;;3.10;1.90;;;7.40;80.00;;;;;;5104236;28;20188;-64
2022/04/01 03:02:10;;;;;;;3.38;1.83;;;7.20;78.20;;;;;;5112814;28;20224;-64
2022/04/01 03:04:37;;;;;;;2.80;1.70;;;7.20;79.20;;;;;;5102579;28;20188;-64
2022/04/01 03:07:06;;;;;;;2.50;1.60;;;7.10;79.40;;;;;;5092907;28;20713;-63
2022/04/01 03:09:34;;;;;;;3.10;1.80;;;7.20;80.00;;;;;;5104901;28;20188;-62
2022/04/01 03:12:01;;;;;;;2.42;1.40;;;7.20;79.90;;;;;;5113191;28;20188;-63
2022/04/01 03:14:28;;;;;;;2.70;1.60;;;7.20;80.20;;;;;;5101449;28;20185;-63
2022/04/01 03:16:56;;;;;;;2.53;1.70;;;7.20;80.10;;;;;;5092268;28;20252;-63
2022/04/01 03:19:23;;;;;;;2.50;1.35;;;7.10;79.70;;;;;;5098386;28;20211;-63
2022/04/01 03:21:50;;;;;;;2.00;1.10;;;7.20;79.80;;;;;;5098717;28;20304;-63
2022/04/01 03:24:19;;;;;;;3.55;1.98;;;7.10;79.50;;;;;;5092419;28;20607;-64
2022/04/01 03:26:47;;;;;;;2.53;1.40;;;7.10;79.20;;;;;;5100071;28;20215;-64
2022/04/01 03:29:17;;;;;;;2.63;1.48;;;7.10;79.40;;;;;;5112729;28;20238;-64
2022/04/01 03:31:46;;;;;;;2.92;1.60;;;7.10;79.20;;;;;;5104431;28;20185;-64
2022/04/01 03:34:13;;;;;;;3.63;1.60;;;7.10;78.80;;;;;;5092332;28;20593;-63
2022/04/01 03:36:41;;;;;;;2.20;1.10;;;7.10;78.00;;;;;;5107227;28;20230;-63
2022/04/01 03:39:08;;;;;;;2.97;1.95;;;7.10;78.00;;;;;;5112890;28;20196;-63
2022/04/01 03:41:37;;;;;;;3.05;1.73;;;7.10;77.90;;;;;;5097894;28;20221;-64
2022/04/01 03:44:05;;;;;;;2.17;1.33;;;7.00;77.40;;;;;;5092274;28;20536;-63
2022/04/01 03:46:47;;;;;;;2.28;1.60;;;7.00;77.20;;;;;;5105215;28;20180;-63
2022/04/01 03:49:18;;;;;;;2.90;2.00;;;7.00;77.20;;;;;;5112657;28;20604;-63
2022/04/01 03:51:49;;;;;;;2.40;1.55;;;6.90;77.10;;;;;;5097496;28;20186;-63
2022/04/01 03:54:17;;;;;;;2.60;1.45;;;6.90;77.50;;;;;;5092185;28;20609;-63
2022/04/01 03:56:56;;;;;;;2.65;1.60;;;6.90;77.70;;;;;;5105601;28;20583;-64
2022/04/01 03:59:26;;;;;;;3.55;1.75;;;6.90;77.70;;;;;;5112516;28;20232;-63
2022/04/01 04:01:57;;;;;;;4.47;1.40;;;6.90;77.30;;;;;;5097418;28;20240;-62
2022/04/01 04:04:24;;;;;;;2.58;1.27;;;6.90;77.50;;;;;;5092366;28;20181;-63
2022/04/01 04:06:53;;;;;;;2.60;1.50;;;6.90;77.50;;;;;;5105578;28;20181;-62
2022/04/01 04:09:22;;;;;;;3.50;1.42;;;6.90;77.30;;;;;;5112533;28;20196;-63
2022/04/01 04:11:51;;;;;;;3.45;2.13;;;6.80;77.20;;;;;;5099279;28;20261;-63
2022/04/01 04:14:21;;;;;;;3.17;1.52;;;6.80;77.60;;;;;;5092145;28;20189;-63
2022/04/01 04:16:52;;;;;;;3.67;1.92;;;6.80;77.80;;;;;;5112399;28;20336;-62
2022/04/01 04:19:25;;;;;;;2.72;1.50;;;6.70;76.50;;;;;;5111926;28;20188;-63
2022/04/01 04:22:03;;;;;;;2.45;1.50;;;6.60;77.40;;;;;;5071833;28;20209;-63
2022/04/01 04:24:36;;;;;;;2.50;1.60;;;6.60;78.20;;;;;;5073679;28;20668;-63
2022/04/01 04:27:12;;;;;;;2.90;1.80;;;6.70;78.70;;;;;;5112794;28;20196;-64
2022/04/01 04:29:47;;;;;;;2.50;1.30;;;6.70;78.90;;;;;;5110407;28;20195;-63
2022/04/01 04:32:20;;;;;;;2.38;1.13;;;6.70;78.20;;;;;;5091957;28;20189;-63
2022/04/01 04:34:51;;;;;;;2.47;1.23;;;6.70;77.20;;;;;;5093884;28;20192;-63
2022/04/01 04:37:25;;;;;;;2.50;1.40;;;6.60;77.20;;;;;;5112128;28;20184;-63
2022/04/01 04:39:54;;;;;;;1.98;1.20;;;6.60;77.50;;;;;;5109711;28;20192;-63
2022/04/01 04:42:23;;;;;;;2.13;1.30;;;6.60;77.10;;;;;;5092075;28;20220;-63
2022/04/01 04:44:51;;;;;;;3.28;2.95;;;6.60;77.10;;;;;;5100542;28;20184;-62
2022/04/01 04:47:25;;;;;;;2.40;1.45;;;6.60;77.20;;;;;;5116111;28;20225;-63
2022/04/01 04:49:56;;;;;;;2.72;1.70;;;6.60;76.90;;;;;;5110400;28;20187;-63
2022/04/01 04:52:27;;;;;;;6.90;3.35;;;6.60;77.00;;;;;;5094292;28;20208;-63
2022/04/01 04:54:57;;;;;;;17.27;10.40;;;6.60;77.70;;;;;;5095702;28;20193;-63
2022/04/01 04:57:27;;;;;;;3.05;2.20;;;6.60;77.30;;;;;;5095397;28;20276;-63
2022/04/01 04:59:57;;;;;;;5.65;3.28;;;6.60;76.90;;;;;;5096395;28;20199;-63
2022/04/01 05:02:39;;;;;;;3.97;2.47;;;6.60;77.10;;;;;;5095504;28;20308;-62
2022/04/01 05:05:15;;;;;;;10.98;2.55;;;6.60;76.70;;;;;;5102882;28;20187;-63
2022/04/01 05:08:02;;;;;;;14.70;8.25;;;6.60;77.30;;;;;;5105512;28;20268;-63
2022/04/01 05:10:34;;;;;;;8.85;4.35;;;6.60;77.80;;;;;;5111258;28;20188;-64
2022/04/01 05:13:10;;;;;;;8.20;3.83;;;6.60;77.30;;;;;;5104578;28;20238;-63
2022/04/01 05:15:40;;;;;;;3.58;1.60;;;6.60;77.20;;;;;;5095930;28;20192;-64
2022/04/01 05:18:14;;;;;;;2.30;1.40;;;6.60;76.60;;;;;;5095974;28;20239;-65
2022/04/01 05:20:49;;;;;;;9.23;5.53;;;6.60;76.40;;;;;;5095129;28;20238;-62
2022/04/01 05:23:21;;;;;;;9.23;4.35;;;6.60;76.40;;;;;;5095646;28;20307;-63
2022/04/01 05:25:55;;;;;;;9.30;3.13;;;6.60;76.40;;;;;;5095737;28;20611;-63
2022/04/01 05:28:30;;;;;;;9.88;4.40;;;6.60;76.50;;;;;;5095449;28;20275;-62
2022/04/01 05:31:10;;;;;;;2.10;1.10;;;6.60;77.00;;;;;;5093269;28;20279;-62
2022/04/01 05:33:44;;;;;;;4.95;1.73;;;6.60;76.70;;;;;;5090228;28;20207;-62
2022/04/01 05:36:13;;;;;;;4.10;1.60;;;6.60;76.20;;;;;;5094935;28;20195;-63
2022/04/01 05:38:43;;;;;;;2.03;1.20;;;6.60;76.10;;;;;;5089266;28;20197;-63
2022/04/01 05:41:11;;;;;;;4.38;1.60;;;6.60;76.20;;;;;;5096167;28;20566;-63
2022/04/01 05:43:42;;;;;;;6.13;1.40;;;6.60;76.60;;;;;;5092881;28;20216;-63
2022/04/01 05:46:11;;;;;;;2.60;1.38;;;6.60;77.00;;;;;;5090022;28;20573;-64
2022/04/01 05:48:40;;;;;;;3.72;1.77;;;6.60;76.80;;;;;;5093016;28;20197;-63
2022/04/01 05:51:08;;;;;;;2.58;1.95;;;6.60;76.90;;;;;;5095747;28;20185;-62
2022/04/01 05:53:37;;;;;;;2.05;1.15;;;6.50;76.80;;;;;;5093502;28;20250;-63
2022/04/01 05:56:04;;;;;;;3.67;1.52;;;6.50;76.70;;;;;;5098470;28;20644;-62
2022/04/01 05:58:31;;;;;;;2.15;1.10;;;6.50;77.30;;;;;;5092701;28;20200;-63
2022/04/01 06:01:07;;;;;;;2.30;1.20;;;6.50;77.40;;;;;;5094927;28;20635;-63
2022/04/01 06:03:56;;;;;;;2.22;0.98;;;6.50;77.30;;;;;;5093091;28;20897;-63
2022/04/01 06:06:31;;;;;;;2.10;1.10;;;6.50;77.20;;;;;;5092057;28;20223;-63
2022/04/01 06:09:02;;;;;;;2.70;1.10;;;6.50;77.30;;;;;;5093134;28;20645;-63
2022/04/01 06:11:39;;;;;;;1.85;0.80;;;6.50;77.60;;;;;;5095815;28;20224;-64
2022/04/01 06:14:18;;;;;;;1.83;0.93;;;6.50;77.70;;;;;;5094453;28;20253;-63
2022/04/01 06:16:53;;;;;;;2.15;1.02;;;6.50;77.30;;;;;;5094702;28;20235;-64
2022/04/01 06:19:25;;;;;;;3.70;1.42;;;6.60;77.30;;;;;;5094774;28;20297;-63
2022/04/01 06:22:04;;;;;;;3.33;2.90;;;6.60;77.00;;;;;;5093756;28;20593;-63
2022/04/01 06:24:36;;;;;;;5.53;1.85;;;6.50;76.90;;;;;;5092833;28;20197;-63
2022/04/01 06:27:06;;;;;;;2.65;1.75;;;6.50;76.90;;;;;;5093647;28;20252;-63
2022/04/01 06:29:38;;;;;;;2.00;1.30;;;6.50;77.10;;;;;;5093981;28;20602;-63
2022/04/01 06:32:09;;;;;;;4.35;1.63;;;6.50;77.30;;;;;;5092394;28;20224;-62
2022/04/01 06:34:55;;;;;;;3.00;1.20;;;6.50;77.50;;;;;;5093237;28;20246;-63
2022/04/01 06:37:28;;;;;;;2.30;1.50;;;6.50;77.60;;;;;;5092962;28;20283;-63
2022/04/01 06:40:04;;;;;;;1.80;0.85;;;6.50;77.60;;;;;;5103629;28;20533;-63
2022/04/01 06:42:34;;;;;;;1.98;1.02;;;6.50;77.30;;;;;;5102955;28;20250;-63
2022/04/01 06:45:01;;;;;;;1.85;1.00;;;6.50;77.10;;;;;;5099580;28;20198;-63
2022/04/01 06:47:30;;;;;;;2.30;1.88;;;6.50;76.90;;;;;;5111419;28;20727;-63
2022/04/01 06:49:57;;;;;;;2.70;1.55;;;6.50;77.30;;;;;;5113580;28;20191;-63
2022/04/01 06:52:25;;;;;;;2.20;1.15;;;6.50;77.50;;;;;;5103605;28;20221;-64
2022/04/01 06:54:52;;;;;;;3.10;1.63;;;6.50;78.00;;;;;;5098001;28;20215;-63
2022/04/01 06:57:19;;;;;;;2.30;1.40;;;6.50;78.30;;;;;;5111915;28;20212;-62
2022/04/01 06:59:46;;;;;;;2.50;1.35;;;6.50;78.10;;;;;;5093978;28;20224;-63
2022/04/01 07:02:13;;;;;;;2.65;1.50;;;6.60;78.10;;;;;;5094154;28;20269;-63
2022/04/01 07:04:42;;;;;;;2.83;1.70;;;6.60;78.00;;;;;;5101609;28;20630;-63
2022/04/01 07:07:09;;;;;;;2.33;1.27;;;6.60;78.10;;;;;;5101435;28;20263;-63
2022/04/01 07:10:02;;;;;;;2.05;1.05;;;6.70;78.40;;;;;;5111295;28;20662;-68
2022/04/01 07:12:29;;;;;;;2.95;1.38;;;6.70;78.20;;;;;;5080489;28;20231;-63
2022/04/01 07:14:56;;;;;;;2.13;1.17;;;6.70;77.80;;;;;;5092554;28;20229;-63
2022/04/01 07:17:24;;;;;;;1.92;1.00;;;6.80;78.70;;;;;;5092609;28;20259;-64
2022/04/01 07:19:52;;;;;;;2.10;1.00;;;6.80;77.90;;;;;;5091384;28;20228;-63
2022/04/01 07:22:19;;;;;;;1.88;1.30;;;6.80;77.60;;;;;;5092512;28;20288;-63
2022/04/01 07:24:46;;;;;;;4.35;1.50;;;6.80;76.90;;;;;;5092939;28;20719;-64
2022/04/01 07:27:14;;;;;;;1.80;0.95;;;6.80;76.80;;;;;;5092351;28;20225;-64
2022/04/01 07:29:41;;;;;;;3.08;1.05;;;6.90;76.60;;;;;;5092405;28;20193;-64
2022/04/01 07:34:54;;;;;;;1.73;0.80;;;6.90;76.90;;;;;;5092671;28;20258;-63
2022/04/01 07:37:23;;;;;;;2.25;1.15;;;7.00;76.80;;;;;;5092916;28;20285;-63
2022/04/01 07:39:50;;;;;;;1.60;0.70;;;7.00;76.60;;;;;;5092882;28;20284;-65
2022/04/01 07:42:18;;;;;;;1.70;0.80;;;7.00;76.30;;;;;;5072425;28;20193;-63
2022/04/01 07:44:45;;;;;;;2.55;1.10;;;7.00;75.40;;;;;;5072432;28;20270;-63
2022/04/01 07:47:14;;;;;;;2.45;1.10;;;7.00;76.00;;;;;;5071978;28;20190;-63
2022/04/01 07:49:41;;;;;;;2.92;1.60;;;7.00;76.20;;;;;;5070653;28;20220;-66
2022/04/01 07:52:10;;;;;;;2.15;1.15;;;7.10;76.20;;;;;;5099605;28;20192;-63
2022/04/01 07:54:38;;;;;;;2.38;1.10;;;7.10;75.90;;;;;;5100411;28;20647;-63
2022/04/01 07:57:06;;;;;;;2.88;1.63;;;7.20;76.70;;;;;;5104415;28;20227;-63
2022/04/01 07:59:33;;;;;;;2.40;1.40;;;7.30;77.20;;;;;;5102265;28;20204;-63
2022/04/01 08:02:00;;;;;;;2.40;1.40;;;7.30;77.10;;;;;;5104893;28;20192;-63
2022/04/01 08:04:27;;;;;;;2.20;1.17;;;7.40;76.30;;;;;;5103637;28;20259;-63
2022/04/01 08:06:55;;;;;;;2.00;1.05;;;7.40;76.20;;;;;;5105105;28;20205;-63
2022/04/01 08:09:23;;;;;;;1.90;0.90;;;7.50;76.90;;;;;;5099209;28;20200;-63
2022/04/01 08:11:51;;;;;;;2.10;1.10;;;7.60;76.00;;;;;;5105747;28;20192;-63
2022/04/01 08:14:18;;;;;;;2.80;0.98;;;7.70;75.80;;;;;;5103252;28;20225;-64
2022/04/01 08:16:45;;;;;;;3.25;1.02;;;7.70;75.80;;;;;;5102781;28;20220;-63
2022/04/01 08:19:13;;;;;;;1.90;0.95;;;7.70;75.40;;;;;;5106637;28;20228;-63
2022/04/01 08:21:40;;;;;;;2.08;1.10;;;7.70;74.30;;;;;;5108873;28;20192;-63
2022/04/01 08:24:08;;;;;;;1.70;0.75;;;7.80;73.50;;;;;;5105613;28;20751;-65
2022/04/01 08:26:36;;;;;;;1.70;0.93;;;7.80;73.60;;;;;;5109042;28;20249;-63
2022/04/01 08:29:03;;;;;;;2.45;1.10;;;7.90;73.80;;;;;;5106817;28;20192;-63
2022/04/01 08:31:33;;;;;;;1.70;0.93;;;7.90;73.00;;;;;;5109396;28;20192;-63
2022/04/01 08:34:00;;;;;;;3.38;2.03;;;8.00;72.70;;;;;;5108555;28;20203;-63
2022/04/01 08:36:27;;;;;;;2.08;1.23;;;8.00;72.20;;;;;;5109510;28;20526;-63
2022/04/01 08:38:54;;;;;;;1.90;0.90;;;8.00;71.30;;;;;;5109378;28;20296;-63
2022/04/01 08:41:23;;;;;;;1.70;0.70;;;8.00;71.10;;;;;;5105802;28;20189;-63
2022/04/01 08:43:53;;;;;;;1.67;0.88;;;8.00;70.80;;;;;;5107880;28;20220;-63
2022/04/01 08:46:21;;;;;;;6.18;1.30;;;8.00;71.20;;;;;;5106833;28;20197;-63
2022/04/01 08:48:48;;;;;;;1.83;0.80;;;8.10;71.10;;;;;;5108181;28;20220;-63
2022/04/01 08:51:15;;;;;;;1.60;0.73;;;8.10;71.80;;;;;;5108610;28;20734;-62
2022/04/01 08:53:44;;;;;;;2.47;0.90;;;8.10;71.90;;;;;;5107715;28;20275;-63
2022/04/01 08:56:12;;;;;;;1.75;1.00;;;8.20;72.20;;;;;;5108796;28;20198;-63
2022/04/01 08:58:40;;;;;;;2.22;1.25;;;8.20;71.30;;;;;;5108889;28;20701;-63
2022/04/01 09:01:08;;;;;;;1.88;1.05;;;8.30;71.60;;;;;;5108822;28;20196;-63
2022/04/01 09:03:37;;;;;;;1.60;0.65;;;8.30;71.40;;;;;;5104850;28;20939;-63
2022/04/01 09:06:05;;;;;;;1.70;0.80;;;8.20;70.70;;;;;;5108424;28;20546;-63
2022/04/01 09:08:35;;;;;;;2.78;1.10;;;8.20;71.30;;;;;;5108374;28;20192;-63
2022/04/01 09:11:04;;;;;;;1.90;0.95;;;8.20;71.00;;;;;;5108398;28;20278;-64
2022/04/01 09:13:34;;;;;;;1.80;0.93;;;8.20;71.10;;;;;;5110110;28;20199;-63
2022/04/01 09:16:04;;;;;;;2.03;1.13;;;8.20;70.90;;;;;;5111457;27;20266;-63
2022/04/01 09:18:40;;;;;;;1.50;0.68;;;8.20;70.50;;;;;;5111553;28;20694;-63
2022/04/01 09:21:09;;;;;;;2.40;0.85;;;8.20;70.20;;;;;;5106295;28;20248;-64
2022/04/01 09:23:36;;;;;;;2.55;0.90;;;8.10;70.00;;;;;;5110195;28;20230;-64
2022/04/01 09:26:05;;;;;;;1.67;0.77;;;8.20;70.60;;;;;;5108821;28;20235;-64
2022/04/01 09:28:33;;;;;;;1.60;0.80;;;8.20;71.00;;;;;;5108723;28;20539;-64
2022/04/01 09:31:02;;;;;;;2.45;1.10;;;8.20;71.60;;;;;;5092642;28;20196;-64
2022/04/01 09:33:52;;;;;;;2.85;1.60;;;8.10;70.50;;;;;;5094611;28;20212;-63
2022/04/01 09:36:21;;;;;;;2.33;1.20;;;8.20;69.70;;;;;;5093599;28;20197;-64
2022/04/01 09:38:59;;;;;;;2.95;1.50;;;8.10;69.20;;;;;;5098887;28;20552;-63
2022/04/01 09:41:32;;;;;;;2.05;1.15;;;8.10;69.50;;;;;;5096696;28;20279;-66
2022/04/01 09:44:08;;;;;;;2.70;1.23;;;8.10;69.60;;;;;;5101515;28;20224;-63
2022/04/01 09:46:40;;;;;;;1.60;0.93;;;8.10;68.90;;;;;;5097806;28;20197;-64
2022/04/01 09:49:09;;;;;;;1.50;0.70;;;8.20;69.10;;;;;;5098573;28;20614;-64
2022/04/01 09:51:40;;;;;;;1.75;0.80;;;8.20;69.60;;;;;;5106231;28;20193;-63
2022/04/01 09:54:07;;;;;;;2.20;1.00;;;8.30;70.70;;;;;;5101515;28;20287;-63
2022/04/01 09:56:47;;;;;;;2.70;1.00;;;8.40;70.10;;;;;;5105400;28;20216;-63
2022/04/01 09:59:17;;;;;;;5.68;1.30;;;8.50;69.30;;;;;;5101704;28;20240;-63
2022/04/01 10:01:45;;;;;;;3.70;1.30;;;8.60;69.30;;;;;;5094417;28;20663;-63
2022/04/01 10:04:14;;;;;;;3.00;0.93;;;8.60;68.40;;;;;;5094289;28;20761;-63
2022/04/01 10:06:42;;;;;;;1.70;0.70;;;8.70;67.40;;;;;;5094364;28;20207;-64
2022/04/01 10:09:12;;;;;;;2.47;1.40;;;8.70;67.70;;;;;;5094422;28;20287;-64
2022/04/01 10:11:41;;;;;;;1.80;0.95;;;8.80;67.90;;;;;;5094367;28;20276;-64
2022/04/01 10:14:10;;;;;;;1.70;0.70;;;8.90;67.90;;;;;;5094270;28;20227;-65
2022/04/01 10:16:37;;;;;;;2.10;0.80;;;9.10;68.40;;;;;;5093920;28;20282;-65
2022/04/01 10:19:11;;;;;;;2.53;1.23;;;9.20;68.30;;;;;;5094165;28;20247;-63
2022/04/01 10:21:42;;;;;;;1.63;0.80;;;9.30;67.80;;;;;;5094038;28;20184;-63
2022/04/01 10:24:19;;;;;;;8.52;4.65;;;9.30;64.70;;;;;;5094010;28;20220;-63
2022/04/01 10:27:01;;;;;;;14.60;7.63;;;9.30;64.90;;;;;;5093975;28;20193;-63
2022/04/01 10:29:29;;;;;;;6.20;4.95;;;9.30;65.40;;;;;;5094074;28;20224;-63
2022/04/01 10:32:17;;;;;;;2.33;1.60;;;9.40;66.90;;;;;;5093888;28;20280;-63
2022/04/01 10:34:47;;;;;;;2.65;1.48;;;9.50;66.50;;;;;;5093815;28;20587;-63
2022/04/01 10:37:16;;;;;;;1.92;1.02;;;9.50;65.20;;;;;;5093736;28;20732;-63
2022/04/01 10:39:49;;;;;;;2.10;0.88;;;9.50;64.90;;;;;;5093644;28;20225;-64
2022/04/01 10:42:16;;;;;;;1.92;0.80;;;9.30;63.50;;;;;;5093485;28;20249;-64
2022/04/01 10:44:54;;;;;;;1.88;0.88;;;9.20;63.70;;;;;;5093586;28;20269;-63
2022/04/01 10:51:36;;;;;;;2.75;1.30;;;9.10;64.20;;;;;;5093522;28;20228;-63
2022/04/01 10:53:41;;;;;;;2.95;2.03;;;9.10;64.50;;;;;;5093633;28;20658;-63
2022/04/01 10:56:27;;;;;;;3.20;2.22;;;9.10;64.70;;;;;;5093755;28;20238;-64
2022/04/01 10:59:09;;;;;;;2.67;1.48;;;9.10;63.90;;;;;;5093417;28;20195;-63
2022/04/01 11:01:37;;;;;;;2.80;1.80;;;9.20;64.40;;;;;;5093210;28;20802;-63
2022/04/01 11:04:28;;;;;;;3.35;2.00;;;9.30;64.80;;;;;;5093332;28;20217;-64
2022/04/01 11:07:00;;;;;;;2.55;1.48;;;9.40;64.50;;;;;;5097063;28;20264;-63
2022/04/01 11:09:50;;;;;;;1.60;0.80;;;9.40;64.10;;;;;;5106422;28;20188;-64
2022/04/01 11:12:35;;;;;;;1.58;0.70;;;9.40;61.80;;;;;;5090494;28;20245;-64
2022/04/01 11:15:12;;;;;;;1.70;0.90;;;9.40;61.60;;;;;;5100752;28;20266;-63
2022/04/01 11:18:05;;;;;;;1.83;1.00;;;9.20;61.00;;;;;;5100336;28;20619;-64
2022/04/01 11:20:37;;;;;;;1.80;0.95;;;9.10;60.60;;;;;;5093315;28;20193;-63
2022/04/01 11:23:15;;;;;;;1.80;1.00;;;9.10;61.50;;;;;;5105179;28;20651;-63
2022/04/01 11:25:57;;;;;;;1.63;0.85;;;9.10;62.00;;;;;;5072953;28;20256;-63
2022/04/01 11:28:27;;;;;;;2.00;1.20;;;9.20;62.50;;;;;;5098793;28;20192;-63
2022/04/01 11:31:11;;;;;;;2.22;0.90;;;9.20;61.80;;;;;;5098897;28;20272;-63
2022/04/01 11:33:38;;;;;;;1.50;0.70;;;9.20;60.90;;;;;;5096557;28;20242;-65
2022/04/01 11:36:07;;;;;;;2.10;0.93;;;9.20;61.60;;;;;;5101297;28;20184;-63
2022/04/01 11:38:38;;;;;;;1.60;0.90;;;9.40;62.30;;;;;;5102112;28;20208;-63
2022/04/01 11:41:06;;;;;;;2.13;0.93;;;9.60;61.60;;;;;;5113177;28;20215;-64
2022/04/01 11:43:35;;;;;;;1.70;0.80;;;9.60;60.90;;;;;;5111729;28;20704;-64
2022/04/01 11:46:05;;;;;;;1.50;0.70;;;9.50;59.20;;;;;;5092830;28;20221;-65
2022/04/01 11:48:34;;;;;;;1.70;0.75;;;9.40;59.50;;;;;;5092766;28;20189;-67
2022/04/01 11:51:04;;;;;;;1.63;0.80;;;9.50;60.10;;;;;;5092564;28;20251;-63
2022/04/01 11:53:35;;;;;;;1.60;0.70;;;9.60;59.50;;;;;;5092232;28;20236;-63
2022/04/01 11:56:05;;;;;;;2.40;0.70;;;9.70;59.90;;;;;;5092672;28;20242;-63
2022/04/01 11:58:36;;;;;;;1.50;0.63;;;9.80;59.50;;;;;;5092489;28;20227;-63
2022/04/01 12:01:03;;;;;;;1.63;0.85;;;9.80;59.10;;;;;;5092473;28;20232;-63
2022/04/01 12:03:30;;;;;;;1.50;0.70;;;9.80;58.30;;;;;;5092506;28;20584;-63
2022/04/01 12:08:41;;;;;;;1.98;0.98;;;9.80;58.70;;;;;;5092139;28;20227;-63
2022/04/01 12:08:46;;;;;;;1.90;0.95;;;10.00;58.80;;;;;;5092400;28;20675;-63
2022/04/01 12:11:14;;;;;;;1.60;0.70;;;10.30;58.00;;;;;;5092694;28;20243;-63
2022/04/01 12:13:50;;;;;;;2.55;0.95;;;10.40;57.30;;;;;;5092308;28;20711;-64
2022/04/01 12:16:18;;;;;;;1.63;0.75;;;10.30;57.00;;;;;;5092281;28;20225;-64
2022/04/01 12:18:47;;;;;;;1.67;0.82;;;10.30;57.00;;;;;;5092478;28;20285;-63
2022/04/01 12:21:17;;;;;;;1.67;1.00;;;10.20;57.30;;;;;;5092212;28;20193;-65
2022/04/01 12:23:46;;;;;;;1.60;0.88;;;10.20;55.70;;;;;;5092384;28;20608;-63
2022/04/01 12:26:15;;;;;;;1.80;0.90;;;10.20;56.10;;;;;;5092263;28;20212;-65
2022/04/01 12:28:45;;;;;;;1.60;0.80;;;10.30;55.80;;;;;;5092263;28;20228;-63
2022/04/01 12:31:19;;;;;;;1.55;0.75;;;10.50;56.20;;;;;;5092442;28;20200;-64
2022/04/01 12:33:48;;;;;;;1.60;0.80;;;10.60;56.30;;;;;;5092197;28;20555;-64
2022/04/01 12:36:16;;;;;;;1.85;0.85;;;10.70;56.90;;;;;;5092328;28;20336;-63
2022/04/01 12:38:44;;;;;;;1.50;0.80;;;10.70;55.80;;;;;;5092246;28;20525;-64
2022/04/01 12:41:17;;;;;;;1.60;0.80;;;10.60;54.80;;;;;;5092175;28;20227;-63
2022/04/01 12:43:46;;;;;;;1.80;1.10;;;10.40;54.10;;;;;;5092146;28;20236;-63
2022/04/01 12:46:14;;;;;;;1.80;1.00;;;10.40;54.40;;;;;;5092194;28;20308;-63
2022/04/01 12:48:47;;;;;;;1.70;1.05;;;10.40;54.90;;;;;;5092059;28;20194;-63
2022/04/01 12:51:22;;;;;;;3.55;1.05;;;10.50;55.30;;;;;;5091838;28;20214;-63
2022/04/01 12:54:08;;;;;;;1.80;1.00;;;10.60;54.80;;;;;;5092026;28;20245;-63
2022/04/01 12:56:41;;;;;;;1.80;0.88;;;10.70;53.80;;;;;;5092014;28;20627;-63
2022/04/01 12:59:10;;;;;;;1.92;0.90;;;10.80;52.70;;;;;;5092128;28;20283;-63
2022/04/01 13:01:39;;;;;;;1.60;0.80;;;10.60;52.30;;;;;;5092013;28;20246;-63
2022/04/01 13:04:07;;;;;;;1.80;0.82;;;10.50;52.60;;;;;;5093598;28;20229;-65
2022/04/01 13:06:35;;;;;;;1.50;0.70;;;10.30;52.60;;;;;;5095892;28;20647;-63
2022/04/01 13:09:06;;;;;;;1.95;0.90;;;10.00;52.40;;;;;;5095545;28;20238;-63
2022/04/01 13:11:40;;;;;;;1.70;0.82;;;9.90;54.50;;;;;;5095963;28;20280;-63
2022/04/01 13:14:20;;;;;;;2.00;0.85;;;9.80;55.10;;;;;;5095729;28;20232;-63
2022/04/01 13:16:47;;;;;;;1.70;0.80;;;9.60;55.10;;;;;;5095431;28;20683;-64
2022/04/01 13:19:27;;;;;;;1.70;0.85;;;9.40;55.40;;;;;;5095809;28;20604;-63
2022/04/01 13:21:56;;;;;;;1.90;0.88;;;9.10;55.40;;;;;;5095315;28;20619;-63
2022/04/01 13:24:24;;;;;;;1.70;0.90;;;8.90;55.60;;;;;;5095419;28;20235;-62